sensor_id;sensor_type;location;lat;lon;timestamp;pressure;altitude;pressure_sealevel;temperature;humidity
49451;BME280;35336;48.400;10.886;2023-03-04T00:00:09;96657.97;;;0.09;87.16
49451;BME280;35336;48.400;10.886;2023-03-04T00:00:25;96649.78;;;0.03;87.22
49451;BME280;35336;48.400;10.886;2023-03-04T00:00:40;96644.78;;;-0.01;87.21
49451;BME280;35336;48.400;10.886;2023-03-04T00:00:56;96649.06;;;0.01;87.30
49451;BME280;35336;48.400;10.886;2023-03-04T00:01:11;96657.28;;;0.07;87.30
49451;BME280;35336;48.400;10.886;2023-03-04T00:01:27;96660.59;;;0.09;87.27
49451;BME280;35336;48.400;10.886;2023-03-04T00:01:42;96654.41;;;0.10;87.62
49451;BME280;35336;48.400;10.886;2023-03-04T00:01:58;96658.09;;;0.08;87.57
49451;BME280;35336;48.400;10.886;2023-03-04T00:02:13;96660.50;;;0.11;87.57
49451;BME280;35336;48.400;10.886;2023-03-04T00:02:28;96644.63;;;0.01;87.08
49451;BME280;35336;48.400;10.886;2023-03-04T00:02:44;96641.19;;;0.01;87.16
49451;BME280;35336;48.400;10.886;2023-03-04T00:02:59;96651.91;;;0.09;87.37
49451;BME280;35336;48.400;10.886;2023-03-04T00:03:14;96633.56;;;-0.03;86.95
49451;BME280;35336;48.400;10.886;2023-03-04T00:03:30;96646.56;;;-0.01;87.13
49451;BME280;35336;48.400;10.886;2023-03-04T00:03:45;96659.91;;;0.07;87.02
49451;BME280;35336;48.400;10.886;2023-03-04T00:04:00;96663.34;;;0.08;86.95
49451;BME280;35336;48.400;10.886;2023-03-04T00:04:16;96657.28;;;0.07;87.28
49451;BME280;35336;48.400;10.886;2023-03-04T00:04:32;96632.53;;;-0.11;86.89
49451;BME280;35336;48.400;10.886;2023-03-04T00:04:47;96665.16;;;0.07;86.99
49451;BME280;35336;48.400;10.886;2023-03-04T00:05:03;96653.09;;;0.05;86.91
49451;BME280;35336;48.400;10.886;2023-03-04T00:05:18;96663.59;;;0.05;86.93
49451;BME280;35336;48.400;10.886;2023-03-04T00:05:33;96658.25;;;0.06;87.00
49451;BME280;35336;48.400;10.886;2023-03-04T00:05:49;96639.66;;;-0.02;86.93
49451;BME280;35336;48.400;10.886;2023-03-04T00:06:04;96651.69;;;0.01;87.08
49451;BME280;35336;48.400;10.886;2023-03-04T00:06:20;96664.31;;;0.07;86.88
49451;BME280;35336;48.400;10.886;2023-03-04T00:06:35;96650.88;;;0.00;86.56
49451;BME280;35336;48.400;10.886;2023-03-04T00:06:50;96654.31;;;0.01;86.93
49451;BME280;35336;48.400;10.886;2023-03-04T00:07:06;96661.69;;;0.07;86.86
49451;BME280;35336;48.400;10.886;2023-03-04T00:07:21;96662.53;;;0.07;86.88
49451;BME280;35336;48.400;10.886;2023-03-04T00:07:37;96645.84;;;-0.03;86.91
49451;BME280;35336;48.400;10.886;2023-03-04T00:07:52;96660.00;;;0.06;86.81
49451;BME280;35336;48.400;10.886;2023-03-04T00:08:07;96636.94;;;-0.12;86.93
49451;BME280;35336;48.400;10.886;2023-03-04T00:08:23;96659.19;;;0.05;87.07
49451;BME280;35336;48.400;10.886;2023-03-04T00:08:38;96668.72;;;0.06;86.97
49451;BME280;35336;48.400;10.886;2023-03-04T00:08:53;96660.28;;;0.03;86.95
49451;BME280;35336;48.400;10.886;2023-03-04T00:09:09;96660.72;;;0.08;86.99
49451;BME280;35336;48.400;10.886;2023-03-04T00:09:24;96660.97;;;0.05;86.65
49451;BME280;35336;48.400;10.886;2023-03-04T00:09:39;96663.59;;;0.05;86.67
49451;BME280;35336;48.400;10.886;2023-03-04T00:09:55;96666.19;;;0.05;86.82
49451;BME280;35336;48.400;10.886;2023-03-04T00:10:11;96648.47;;;-0.03;86.78
49451;BME280;35336;48.400;10.886;2023-03-04T00:10:26;96663.59;;;0.05;86.92
49451;BME280;35336;48.400;10.886;2023-03-04T00:10:42;96650.25;;;-0.04;87.02
49451;BME280;35336;48.400;10.886;2023-03-04T00:10:57;96641.69;;;-0.06;87.08
49451;BME280;35336;48.400;10.886;2023-03-04T00:11:13;96648.34;;;-0.02;86.80
49451;BME280;35336;48.400;10.886;2023-03-04T00:11:28;96627.50;;;-0.14;87.05
49451;BME280;35336;48.400;10.886;2023-03-04T00:11:43;96660.59;;;0.09;87.00
49451;BME280;35336;48.400;10.886;2023-03-04T00:11:59;96651.69;;;0.01;86.91
49451;BME280;35336;48.400;10.886;2023-03-04T00:12:14;96626.81;;;-0.17;86.64
49451;BME280;35336;48.400;10.886;2023-03-04T00:12:30;96652.78;;;-0.02;86.67
49451;BME280;35336;48.400;10.886;2023-03-04T00:12:45;96665.97;;;0.08;86.44
49451;BME280;35336;48.400;10.886;2023-03-04T00:13:00;96657.38;;;0.06;86.56
49451;BME280;35336;48.400;10.886;2023-03-04T00:13:15;96661.53;;;0.08;86.63
49451;BME280;35336;48.400;10.886;2023-03-04T00:13:31;96662.41;;;0.09;86.27
49451;BME280;35336;48.400;10.886;2023-03-04T00:13:46;96654.31;;;0.01;86.38
49451;BME280;35336;48.400;10.886;2023-03-04T00:14:02;96661.44;;;0.10;86.22
49451;BME280;35336;48.400;10.886;2023-03-04T00:14:17;96624.91;;;-0.14;86.27
49451;BME280;35336;48.400;10.886;2023-03-04T00:14:32;96648.13;;;0.02;86.22
49451;BME280;35336;48.400;10.886;2023-03-04T00:14:48;96664.75;;;0.12;86.46
49451;BME280;35336;48.400;10.886;2023-03-04T00:15:03;96664.66;;;0.13;86.17
49451;BME280;35336;48.400;10.886;2023-03-04T00:15:19;96663.69;;;0.14;86.26
49451;BME280;35336;48.400;10.886;2023-03-04T00:15:34;96661.19;;;0.13;85.97
49451;BME280;35336;48.400;10.886;2023-03-04T00:15:50;96661.19;;;0.13;85.78
49451;BME280;35336;48.400;10.886;2023-03-04T00:16:05;96643.94;;;-0.01;85.75
49451;BME280;35336;48.400;10.886;2023-03-04T00:16:21;96647.84;;;0.05;85.94
49451;BME280;35336;48.400;10.886;2023-03-04T00:16:37;96627.28;;;-0.11;85.87
49451;BME280;35336;48.400;10.886;2023-03-04T00:16:52;96654.91;;;0.04;85.86
49451;BME280;35336;48.400;10.886;2023-03-04T00:17:07;96666.69;;;0.10;86.02
49451;BME280;35336;48.400;10.886;2023-03-04T00:17:23;96636.69;;;-0.09;85.89
49451;BME280;35336;48.400;10.886;2023-03-04T00:17:38;96670.25;;;0.09;86.14
49451;BME280;35336;48.400;10.886;2023-03-04T00:17:53;96661.94;;;0.04;86.24
49451;BME280;35336;48.400;10.886;2023-03-04T00:18:09;96662.41;;;0.09;86.23
49451;BME280;35336;48.400;10.886;2023-03-04T00:18:24;96652.63;;;-0.01;86.18
49451;BME280;35336;48.400;10.886;2023-03-04T00:18:39;96642.28;;;-0.02;86.20
49451;BME280;35336;48.400;10.886;2023-03-04T00:18:57;96645.13;;;-0.05;86.11
49451;BME280;35336;48.400;10.886;2023-03-04T00:19:12;96651.81;;;-0.01;86.25
49451;BME280;35336;48.400;10.886;2023-03-04T00:19:27;96645.72;;;-0.02;86.00
49451;BME280;35336;48.400;10.886;2023-03-04T00:19:43;96662.63;;;0.06;86.25
49451;BME280;35336;48.400;10.886;2023-03-04T00:19:58;96647.75;;;-0.05;85.99
49451;BME280;35336;48.400;10.886;2023-03-04T00:20:14;96660.28;;;0.03;86.00
49451;BME280;35336;48.400;10.886;2023-03-04T00:20:29;96655.50;;;-0.04;86.17
49451;BME280;35336;48.400;10.886;2023-03-04T00:20:44;96661.22;;;0.02;86.22
49451;BME280;35336;48.400;10.886;2023-03-04T00:21:09;96644.56;;;-0.09;86.11
49451;BME280;35336;48.400;10.886;2023-03-04T00:21:24;96640.16;;;-0.08;86.19
49451;BME280;35336;48.400;10.886;2023-03-04T00:21:40;96652.50;;;0.01;86.38
49451;BME280;35336;48.400;10.886;2023-03-04T00:21:55;96644.19;;;-0.04;86.21
49451;BME280;35336;48.400;10.886;2023-03-04T00:22:11;96643.47;;;-0.06;86.15
49451;BME280;35336;48.400;10.886;2023-03-04T00:22:26;96655.03;;;0.03;85.97
49451;BME280;35336;48.400;10.886;2023-03-04T00:22:41;96647.88;;;-0.07;86.21
49451;BME280;35336;48.400;10.886;2023-03-04T00:22:57;96652.50;;;0.01;86.62
49451;BME280;35336;48.400;10.886;2023-03-04T00:23:12;96635.88;;;-0.09;86.50
49451;BME280;35336;48.400;10.886;2023-03-04T00:23:27;96640.25;;;-0.10;86.43
49451;BME280;35336;48.400;10.886;2023-03-04T00:23:43;96653.34;;;0.02;86.48
49451;BME280;35336;48.400;10.886;2023-03-04T00:23:58;96653.34;;;0.02;86.54
49451;BME280;35336;48.400;10.886;2023-03-04T00:24:13;96657.75;;;0.01;86.73
49451;BME280;35336;48.400;10.886;2023-03-04T00:24:29;96656.13;;;0.00;86.35
49451;BME280;35336;48.400;10.886;2023-03-04T00:24:44;96641.34;;;-0.12;86.35
49451;BME280;35336;48.400;10.886;2023-03-04T00:24:59;96658.84;;;-0.02;86.36
49451;BME280;35336;48.400;10.886;2023-03-04T00:25:15;96624.94;;;-0.26;86.14
49451;BME280;35336;48.400;10.886;2023-03-04T00:25:30;96643.84;;;-0.11;86.02
49451;BME280;35336;48.400;10.886;2023-03-04T00:25:45;96644.09;;;-0.14;86.50
49451;BME280;35336;48.400;10.886;2023-03-04T00:26:01;96640.75;;;-0.16;86.54
49451;BME280;35336;48.400;10.886;2023-03-04T00:26:18;96643.72;;;-0.21;86.50
49451;BME280;35336;48.400;10.886;2023-03-04T00:26:33;96660.28;;;-0.09;86.63
49451;BME280;35336;48.400;10.886;2023-03-04T00:26:48;96643.38;;;-0.16;86.69
49451;BME280;35336;48.400;10.886;2023-03-04T00:27:04;96659.31;;;-0.08;86.43
49451;BME280;35336;48.400;10.886;2023-03-04T00:27:19;96621.94;;;-0.33;86.38
49451;BME280;35336;48.400;10.886;2023-03-04T00:27:34;96640.03;;;-0.18;86.47
49451;BME280;35336;48.400;10.886;2023-03-04T00:27:50;96661.00;;;-0.07;86.40
49451;BME280;35336;48.400;10.886;2023-03-04T00:28:05;96661.81;;;-0.06;86.47
49451;BME280;35336;48.400;10.886;2023-03-04T00:28:20;96665.28;;;-0.06;86.55
49451;BME280;35336;48.400;10.886;2023-03-04T00:28:36;96655.03;;;-0.09;86.52
49451;BME280;35336;48.400;10.886;2023-03-04T00:28:51;96664.34;;;-0.05;86.69
49451;BME280;35336;48.400;10.886;2023-03-04T00:29:06;96668.84;;;-0.07;86.22
49451;BME280;35336;48.400;10.886;2023-03-04T00:29:22;96664.56;;;-0.08;86.32
49451;BME280;35336;48.400;10.886;2023-03-04T00:29:37;96663.75;;;-0.08;86.32
49451;BME280;35336;48.400;10.886;2023-03-04T00:29:52;96652.91;;;-0.15;86.12
49451;BME280;35336;48.400;10.886;2023-03-04T00:30:08;96625.28;;;-0.30;86.00
49451;BME280;35336;48.400;10.886;2023-03-04T00:30:25;96664.56;;;-0.08;85.97
49451;BME280;35336;48.400;10.886;2023-03-04T00:30:40;96667.31;;;-0.09;86.09
49451;BME280;35336;48.400;10.886;2023-03-04T00:30:56;96648.03;;;-0.20;85.95
49451;BME280;35336;48.400;10.886;2023-03-04T00:31:11;96660.78;;;-0.15;86.41
49451;BME280;35336;48.400;10.886;2023-03-04T00:31:26;96655.75;;;-0.18;86.20
49451;BME280;35336;48.400;10.886;2023-03-04T00:31:42;96651.50;;;-0.19;86.23
49451;BME280;35336;48.400;10.886;2023-03-04T00:31:57;96663.25;;;-0.13;86.47
49451;BME280;35336;48.400;10.886;2023-03-04T00:32:12;96661.34;;;-0.11;86.35
49451;BME280;35336;48.400;10.886;2023-03-04T00:32:28;96649.94;;;-0.22;86.22
49451;BME280;35336;48.400;10.886;2023-03-04T00:32:43;96670.91;;;-0.10;86.37
49451;BME280;35336;48.400;10.886;2023-03-04T00:32:58;96660.28;;;-0.09;86.37
49451;BME280;35336;48.400;10.886;2023-03-04T00:33:14;96668.16;;;-0.09;86.55
49451;BME280;35336;48.400;10.886;2023-03-04T00:33:30;96646.13;;;-0.18;86.47
49451;BME280;35336;48.400;10.886;2023-03-04T00:33:45;96657.66;;;-0.09;86.45
49451;BME280;35336;48.400;10.886;2023-03-04T00:34:00;96654.09;;;-0.08;86.51
49451;BME280;35336;48.400;10.886;2023-03-04T00:34:16;96654.09;;;-0.08;86.54
49451;BME280;35336;48.400;10.886;2023-03-04T00:34:31;96664.44;;;-0.06;86.80
49451;BME280;35336;48.400;10.886;2023-03-04T00:34:46;96655.88;;;-0.08;86.77
49451;BME280;35336;48.400;10.886;2023-03-04T00:35:02;96639.22;;;-0.19;86.67
49451;BME280;35336;48.400;10.886;2023-03-04T00:35:17;96651.38;;;-0.18;86.62
49451;BME280;35336;48.400;10.886;2023-03-04T00:35:33;96628.16;;;-0.34;86.09
49451;BME280;35336;48.400;10.886;2023-03-04T00:35:48;96653.13;;;-0.18;86.11
49451;BME280;35336;48.400;10.886;2023-03-04T00:36:04;96661.59;;;-0.14;86.16
49451;BME280;35336;48.400;10.886;2023-03-04T00:36:19;96660.63;;;-0.13;86.14
49451;BME280;35336;48.400;10.886;2023-03-04T00:36:34;96646.47;;;-0.22;86.36
49451;BME280;35336;48.400;10.886;2023-03-04T00:36:50;96647.31;;;-0.22;86.29
49451;BME280;35336;48.400;10.886;2023-03-04T00:37:05;96671.38;;;-0.17;86.36
49451;BME280;35336;48.400;10.886;2023-03-04T00:37:20;96661.84;;;-0.18;86.62
49451;BME280;35336;48.400;10.886;2023-03-04T00:37:36;96641.88;;;-0.30;86.59
49451;BME280;35336;48.400;10.886;2023-03-04T00:37:51;96657.19;;;-0.25;86.74
49451;BME280;35336;48.400;10.886;2023-03-04T00:38:06;96659.34;;;-0.19;86.94
49451;BME280;35336;48.400;10.886;2023-03-04T00:38:22;96660.31;;;-0.20;87.30
49451;BME280;35336;48.400;10.886;2023-03-04T00:38:37;96635.44;;;-0.37;86.96
49451;BME280;35336;48.400;10.886;2023-03-04T00:38:53;96645.53;;;-0.33;86.98
49451;BME280;35336;48.400;10.886;2023-03-04T00:39:09;96664.59;;;-0.19;86.95
49451;BME280;35336;48.400;10.886;2023-03-04T00:39:24;96652.22;;;-0.28;86.92
49451;BME280;35336;48.400;10.886;2023-03-04T00:39:39;96627.22;;;-0.44;86.50
49451;BME280;35336;48.400;10.886;2023-03-04T00:39:55;96656.16;;;-0.23;86.68
49451;BME280;35336;48.400;10.886;2023-03-04T00:40:11;96666.50;;;-0.21;86.64
49451;BME280;35336;48.400;10.886;2023-03-04T00:40:26;96650.78;;;-0.33;86.66
49451;BME280;35336;48.400;10.886;2023-03-04T00:40:41;96662.44;;;-0.25;86.61
49451;BME280;35336;48.400;10.886;2023-03-04T00:40:57;96667.31;;;-0.21;86.88
49451;BME280;35336;48.400;10.886;2023-03-04T00:41:12;96670.78;;;-0.20;86.72
49451;BME280;35336;48.400;10.886;2023-03-04T00:41:27;96664.69;;;-0.21;86.84
49451;BME280;35336;48.400;10.886;2023-03-04T00:41:43;96665.78;;;-0.23;87.09
49451;BME280;35336;48.400;10.886;2023-03-04T00:41:58;96653.03;;;-0.28;86.98
49451;BME280;35336;48.400;10.886;2023-03-04T00:42:13;96666.38;;;-0.20;86.61
49451;BME280;35336;48.400;10.886;2023-03-04T00:42:29;96642.44;;;-0.38;86.78
49451;BME280;35336;48.400;10.886;2023-03-04T00:42:44;96668.84;;;-0.18;86.83
49451;BME280;35336;48.400;10.886;2023-03-04T00:42:59;96654.72;;;-0.27;86.66
49451;BME280;35336;48.400;10.886;2023-03-04T00:43:15;96657.19;;;-0.25;86.88
49451;BME280;35336;48.400;10.886;2023-03-04T00:43:30;96641.28;;;-0.34;86.81
49451;BME280;35336;48.400;10.886;2023-03-04T00:43:46;96667.91;;;-0.17;86.93
49451;BME280;35336;48.400;10.886;2023-03-04T00:44:01;96650.31;;;-0.26;86.87
49451;BME280;35336;48.400;10.886;2023-03-04T00:44:16;96663.53;;;-0.17;86.88
49451;BME280;35336;48.400;10.886;2023-03-04T00:44:32;96659.22;;;-0.18;87.01
49451;BME280;35336;48.400;10.886;2023-03-04T00:44:47;96648.38;;;-0.24;87.03
49451;BME280;35336;48.400;10.886;2023-03-04T00:45:03;96654.47;;;-0.24;86.96
49451;BME280;35336;48.400;10.886;2023-03-04T00:45:18;96654.34;;;-0.22;86.92
49451;BME280;35336;48.400;10.886;2023-03-04T00:45:33;96651.84;;;-0.24;86.94
49451;BME280;35336;48.400;10.886;2023-03-04T00:45:49;96638.06;;;-0.37;87.10
49451;BME280;35336;48.400;10.886;2023-03-04T00:46:04;96659.59;;;-0.22;86.96
49451;BME280;35336;48.400;10.886;2023-03-04T00:46:19;96665.56;;;-0.20;86.86
49451;BME280;35336;48.400;10.886;2023-03-04T00:46:35;96666.38;;;-0.20;86.76
49451;BME280;35336;48.400;10.886;2023-03-04T00:46:50;96666.50;;;-0.21;86.92
49451;BME280;35336;48.400;10.886;2023-03-04T00:47:06;96659.13;;;-0.27;86.79
49451;BME280;35336;48.400;10.886;2023-03-04T00:47:21;96661.50;;;-0.24;86.86
49451;BME280;35336;48.400;10.886;2023-03-04T00:47:36;96668.84;;;-0.18;86.84
49451;BME280;35336;48.400;10.886;2023-03-04T00:47:52;96659.13;;;-0.27;86.62
49451;BME280;35336;48.400;10.886;2023-03-04T00:48:07;96669.13;;;-0.21;86.46
49451;BME280;35336;48.400;10.886;2023-03-04T00:48:22;96649.81;;;-0.32;86.45
49451;BME280;35336;48.400;10.886;2023-03-04T00:48:38;96654.84;;;-0.28;86.37
49451;BME280;35336;48.400;10.886;2023-03-04T00:48:53;96631.88;;;-0.47;86.42
49451;BME280;35336;48.400;10.886;2023-03-04T00:49:08;96652.72;;;-0.35;86.46
49451;BME280;35336;48.400;10.886;2023-03-04T00:49:24;96668.41;;;-0.23;86.72
49451;BME280;35336;48.400;10.886;2023-03-04T00:49:39;96665.44;;;-0.30;86.57
49451;BME280;35336;48.400;10.886;2023-03-04T00:49:55;96673.50;;;-0.22;86.70
49451;BME280;35336;48.400;10.886;2023-03-04T00:50:10;96664.81;;;-0.22;86.88
49451;BME280;35336;48.400;10.886;2023-03-04T00:50:26;96659.13;;;-0.27;86.69
49451;BME280;35336;48.400;10.886;2023-03-04T00:50:42;96652.34;;;-0.30;86.92
49451;BME280;35336;48.400;10.886;2023-03-04T00:50:57;96660.53;;;-0.23;86.64
49451;BME280;35336;48.400;10.886;2023-03-04T00:51:12;96644.59;;;-0.32;86.64
49451;BME280;35336;48.400;10.886;2023-03-04T00:51:28;96673.50;;;-0.22;86.62
49451;BME280;35336;48.400;10.886;2023-03-04T00:51:43;96664.81;;;-0.22;86.84
49451;BME280;35336;48.400;10.886;2023-03-04T00:51:58;96656.88;;;-0.32;86.56
49451;BME280;35336;48.400;10.886;2023-03-04T00:52:14;96661.03;;;-0.29;86.71
49451;BME280;35336;48.400;10.886;2023-03-04T00:52:29;96654.47;;;-0.24;86.79
49451;BME280;35336;48.400;10.886;2023-03-04T00:52:45;96661.50;;;-0.24;87.12
49451;BME280;35336;48.400;10.886;2023-03-04T00:53:00;96644.84;;;-0.35;86.88
49451;BME280;35336;48.400;10.886;2023-03-04T00:53:15;96645.78;;;-0.36;87.11
49451;BME280;35336;48.400;10.886;2023-03-04T00:53:31;96625.81;;;-0.48;87.08
49451;BME280;35336;48.400;10.886;2023-03-04T00:53:46;96634.34;;;-0.46;87.44
49451;BME280;35336;48.400;10.886;2023-03-04T00:54:02;96675.31;;;-0.22;87.24
49451;BME280;35336;48.400;10.886;2023-03-04T00:54:17;96665.78;;;-0.23;87.68
49451;BME280;35336;48.400;10.886;2023-03-04T00:54:33;96671.03;;;-0.23;87.67
49451;BME280;35336;48.400;10.886;2023-03-04T00:54:48;96665.56;;;-0.20;87.69
49451;BME280;35336;48.400;10.886;2023-03-04T00:55:04;96664.81;;;-0.22;87.64
49451;BME280;35336;48.400;10.886;2023-03-04T00:55:20;96646.13;;;-0.29;87.92
49451;BME280;35336;48.400;10.886;2023-03-04T00:55:36;96667.22;;;-0.19;87.69
49451;BME280;35336;48.400;10.886;2023-03-04T00:55:51;96666.38;;;-0.20;87.41
49451;BME280;35336;48.400;10.886;2023-03-04T00:56:06;96654.72;;;-0.27;87.44
49451;BME280;35336;48.400;10.886;2023-03-04T00:56:22;96669.00;;;-0.20;87.29
49451;BME280;35336;48.400;10.886;2023-03-04T00:56:37;96650.53;;;-0.29;87.35
49451;BME280;35336;48.400;10.886;2023-03-04T00:56:52;96658.53;;;-0.31;87.19
49451;BME280;35336;48.400;10.886;2023-03-04T00:57:08;96665.19;;;-0.27;86.80
49451;BME280;35336;48.400;10.886;2023-03-04T00:57:23;96661.16;;;-0.31;86.93
49451;BME280;35336;48.400;10.886;2023-03-04T00:57:38;96669.72;;;-0.29;87.29
49451;BME280;35336;48.400;10.886;2023-03-04T00:57:54;96655.56;;;-0.38;87.39
49451;BME280;35336;48.400;10.886;2023-03-04T00:58:09;96664.59;;;-0.30;87.41
49451;BME280;35336;48.400;10.886;2023-03-04T00:58:24;96638.19;;;-0.50;87.47
49451;BME280;35336;48.400;10.886;2023-03-04T00:58:40;96663.78;;;-0.31;87.53
49451;BME280;35336;48.400;10.886;2023-03-04T00:58:55;96651.38;;;-0.40;87.51
49451;BME280;35336;48.400;10.886;2023-03-04T00:59:10;96664.84;;;-0.34;87.58
49451;BME280;35336;48.400;10.886;2023-03-04T00:59:26;96646.28;;;-0.42;87.71
49451;BME280;35336;48.400;10.886;2023-03-04T00:59:41;96665.53;;;-0.32;87.79
49451;BME280;35336;48.400;10.886;2023-03-04T00:59:56;96669.84;;;-0.30;87.99
49451;BME280;35336;48.400;10.886;2023-03-04T01:00:12;96661.16;;;-0.31;87.88
49451;BME280;35336;48.400;10.886;2023-03-04T01:00:28;96616.53;;;-0.63;87.84
49451;BME280;35336;48.400;10.886;2023-03-04T01:00:43;96649.59;;;-0.40;87.95
49451;BME280;35336;48.400;10.886;2023-03-04T01:00:58;96644.25;;;-0.38;88.10
49451;BME280;35336;48.400;10.886;2023-03-04T01:01:14;96653.53;;;-0.34;88.09
49451;BME280;35336;48.400;10.886;2023-03-04T01:01:29;96664.59;;;-0.30;87.97
49451;BME280;35336;48.400;10.886;2023-03-04T01:01:45;96633.53;;;-0.46;88.13
49451;BME280;35336;48.400;10.886;2023-03-04T01:02:00;96665.31;;;-0.28;87.88
49451;BME280;35336;48.400;10.886;2023-03-04T01:02:15;96632.81;;;-0.49;87.92
49451;BME280;35336;48.400;10.886;2023-03-04T01:02:31;96622.94;;;-0.56;87.95
49451;BME280;35336;48.400;10.886;2023-03-04T01:02:46;96663.66;;;-0.29;87.94
49451;BME280;35336;48.400;10.886;2023-03-04T01:03:01;96647.94;;;-0.41;88.02
49451;BME280;35336;48.400;10.886;2023-03-04T01:03:17;96657.69;;;-0.32;88.11
49451;BME280;35336;48.400;10.886;2023-03-04T01:03:32;96657.94;;;-0.35;87.96
49451;BME280;35336;48.400;10.886;2023-03-04T01:03:47;96634.84;;;-0.41;88.13
49451;BME280;35336;48.400;10.886;2023-03-04T01:04:03;96662.81;;;-0.30;88.13
49451;BME280;35336;48.400;10.886;2023-03-04T01:04:18;96650.78;;;-0.33;88.36
49451;BME280;35336;48.400;10.886;2023-03-04T01:04:34;96659.34;;;-0.30;88.31
49451;BME280;35336;48.400;10.886;2023-03-04T01:04:49;96646.25;;;-0.30;88.47
49451;BME280;35336;48.400;10.886;2023-03-04T01:05:06;96607.72;;;-0.62;88.44
49451;BME280;35336;48.400;10.886;2023-03-04T01:05:22;96647.34;;;-0.33;88.34
49451;BME280;35336;48.400;10.886;2023-03-04T01:05:37;96658.53;;;-0.31;88.54
49451;BME280;35336;48.400;10.886;2023-03-04T01:05:53;96635.53;;;-0.39;88.41
49451;BME280;35336;48.400;10.886;2023-03-04T01:06:08;96643.16;;;-0.36;88.62
49451;BME280;35336;48.400;10.886;2023-03-04T01:06:24;96651.50;;;-0.30;88.44
49451;BME280;35336;48.400;10.886;2023-03-04T01:06:39;96652.44;;;-0.32;88.13
49451;BME280;35336;48.400;10.886;2023-03-04T01:06:54;96656.00;;;-0.33;88.31
49451;BME280;35336;48.400;10.886;2023-03-04T01:07:09;96659.34;;;-0.30;88.42
49451;BME280;35336;48.400;10.886;2023-03-04T01:07:25;96640.78;;;-0.39;88.11
49451;BME280;35336;48.400;10.886;2023-03-04T01:07:40;96655.06;;;-0.32;87.99
49451;BME280;35336;48.400;10.886;2023-03-04T01:07:56;96654.38;;;-0.34;87.68
49451;BME280;35336;48.400;10.886;2023-03-04T01:08:11;96641.28;;;-0.45;87.71
49451;BME280;35336;48.400;10.886;2023-03-04T01:08:26;96609.13;;;-0.58;87.78
49451;BME280;35336;48.400;10.886;2023-03-04T01:08:41;96642.00;;;-0.43;87.82
49451;BME280;35336;48.400;10.886;2023-03-04T01:08:57;96617.00;;;-0.58;87.77
49451;BME280;35336;48.400;10.886;2023-03-04T01:09:12;96635.31;;;-0.47;87.80
49451;BME280;35336;48.400;10.886;2023-03-04T01:09:28;96656.16;;;-0.34;87.83
49451;BME280;35336;48.400;10.886;2023-03-04T01:09:43;96645.44;;;-0.42;87.83
49451;BME280;35336;48.400;10.886;2023-03-04T01:09:58;96644.13;;;-0.37;87.84
49451;BME280;35336;48.400;10.886;2023-03-04T01:10:14;96640.31;;;-0.44;87.95
49451;BME280;35336;48.400;10.886;2023-03-04T01:10:29;96637.69;;;-0.44;87.88
49451;BME280;35336;48.400;10.886;2023-03-04T01:10:45;96635.22;;;-0.45;87.98
49451;BME280;35336;48.400;10.886;2023-03-04T01:11:00;96636.88;;;-0.44;87.97
49451;BME280;35336;48.400;10.886;2023-03-04T01:11:16;96647.69;;;-0.38;88.18
49451;BME280;35336;48.400;10.886;2023-03-04T01:11:31;96652.13;;;-0.38;87.99
49451;BME280;35336;48.400;10.886;2023-03-04T01:11:46;96656.50;;;-0.39;88.20
49451;BME280;35336;48.400;10.886;2023-03-04T01:12:02;96641.41;;;-0.46;88.36
49451;BME280;35336;48.400;10.886;2023-03-04T01:12:17;96628.66;;;-0.51;88.52
49451;BME280;35336;48.400;10.886;2023-03-04T01:12:33;96630.44;;;-0.52;88.38
49451;BME280;35336;48.400;10.886;2023-03-04T01:12:48;96627.72;;;-0.50;88.37
49451;BME280;35336;48.400;10.886;2023-03-04T01:13:03;96642.72;;;-0.41;88.45
49451;BME280;35336;48.400;10.886;2023-03-04T01:13:19;96631.16;;;-0.50;88.67
49451;BME280;35336;48.400;10.886;2023-03-04T01:13:34;96641.63;;;-0.38;88.47
49451;BME280;35336;48.400;10.886;2023-03-04T01:13:49;96628.88;;;-0.43;88.62
49451;BME280;35336;48.400;10.886;2023-03-04T01:14:05;96649.50;;;-0.38;88.74
49451;BME280;35336;48.400;10.886;2023-03-04T01:14:20;96623.19;;;-0.48;88.75
49451;BME280;35336;48.400;10.886;2023-03-04T01:14:35;96632.81;;;-0.49;88.63
49451;BME280;35336;48.400;10.886;2023-03-04T01:14:51;96622.69;;;-0.53;88.80
49451;BME280;35336;48.400;10.886;2023-03-04T01:15:08;96646.16;;;-0.40;88.83
49451;BME280;35336;48.400;10.886;2023-03-04T01:15:23;96636.16;;;-0.46;88.81
49451;BME280;35336;48.400;10.886;2023-03-04T01:15:39;96629.38;;;-0.49;89.13
49451;BME280;35336;48.400;10.886;2023-03-04T01:15:54;96629.47;;;-0.51;89.14
49451;BME280;35336;48.400;10.886;2023-03-04T01:16:10;96641.41;;;-0.46;89.14
49451;BME280;35336;48.400;10.886;2023-03-04T01:16:25;96634.34;;;-0.46;89.06
49451;BME280;35336;48.400;10.886;2023-03-04T01:16:41;96611.97;;;-0.61;89.33
49451;BME280;35336;48.400;10.886;2023-03-04T01:16:56;96645.19;;;-0.39;89.44
49451;BME280;35336;48.400;10.886;2023-03-04T01:17:11;96618.53;;;-0.56;89.40
49451;BME280;35336;48.400;10.886;2023-03-04T01:17:27;96626.84;;;-0.51;89.20
49451;BME280;35336;48.400;10.886;2023-03-04T01:17:42;96647.09;;;-0.41;88.91
49451;BME280;35336;48.400;10.886;2023-03-04T01:17:58;96641.03;;;-0.42;89.00
49451;BME280;35336;48.400;10.886;2023-03-04T01:18:13;96650.78;;;-0.44;88.60
49451;BME280;35336;48.400;10.886;2023-03-04T01:18:28;96627.25;;;-0.55;88.34
49451;BME280;35336;48.400;10.886;2023-03-04T01:18:44;96634.84;;;-0.52;88.71
49451;BME280;35336;48.400;10.886;2023-03-04T01:18:59;96635.09;;;-0.55;89.11
49451;BME280;35336;48.400;10.886;2023-03-04T01:19:15;96637.72;;;-0.55;89.57
49451;BME280;35336;48.400;10.886;2023-03-04T01:19:30;96611.50;;;-0.67;89.86
49451;BME280;35336;48.400;10.886;2023-03-04T01:19:46;96642.22;;;-0.46;89.91
49451;BME280;35336;48.400;10.886;2023-03-04T01:20:02;96619.59;;;-0.58;90.06
49451;BME280;35336;48.400;10.886;2023-03-04T01:20:18;96626.38;;;-0.56;90.18
49451;BME280;35336;48.400;10.886;2023-03-04T01:20:33;96641.53;;;-0.48;89.74
49451;BME280;35336;48.400;10.886;2023-03-04T01:20:49;96619.00;;;-0.62;89.57
49451;BME280;35336;48.400;10.886;2023-03-04T01:21:05;96650.78;;;-0.44;89.67